Time;durP1;ratioP1;P1;durP2;ratioP2;P2;SDS_P1;SDS_P2;PMS_P1;PMS_P2;Temp;Humidity;BMP_temperature;BMP_pressure;BME280_temperature;BME280_humidity;BME280_pressure;Samples;Min_cycle;Max_cycle;Signal;HPM_P1;HPM_P2
2023/09/08 00:01:07;;;;;;;5.60;1.40;;;;;;;10.07;100.00;101167.74;104974;1257;65674;-53
2023/09/08 00:03:34;;;;;;;5.60;1.40;;;;;;;10.07;100.00;101165.95;104877;1253;71732;-50
2023/09/08 00:06:02;;;;;;;2.60;1.10;;;;;;;10.02;100.00;101165.73;104497;1256;60533;-52
2023/09/08 00:08:29;;;;;;;2.60;1.00;;;;;;;9.97;100.00;101162.80;105011;1253;60721;-52
2023/09/08 00:10:57;;;;;;;4.80;1.40;;;;;;;9.97;100.00;101165.30;104963;1259;72630;-51
2023/09/08 00:13:24;;;;;;;5.20;1.30;;;;;;;10.00;100.00;101159.86;105014;1257;65524;-51
2023/09/08 00:15:51;;;;;;;5.10;1.20;;;;;;;10.01;100.00;101162.70;104799;1253;73248;-53
2023/09/08 00:18:19;;;;;;;5.60;1.60;;;;;;;10.02;100.00;101165.55;104852;1255;60400;-52
2023/09/08 00:20:46;;;;;;;2.30;1.20;;;;;;;10.03;100.00;101169.31;104785;1259;60459;-52
2023/09/08 00:23:14;;;;;;;4.00;1.10;;;;;;;9.99;100.00;101172.25;105348;1258;74815;-52
2023/09/08 00:25:41;;;;;;;5.80;1.70;;;;;;;9.90;100.00;101174.79;104814;1253;67111;-53
2023/09/08 00:28:08;;;;;;;2.60;1.10;;;;;;;9.83;100.00;101174.23;104939;1256;71276;-53
2023/09/08 00:30:36;;;;;;;4.70;1.70;;;;;;;9.83;100.00;101177.64;104891;1253;60429;-53
2023/09/08 00:33:04;;;;;;;6.40;1.30;;;;;;;9.83;100.00;101181.05;104937;1253;60534;-50
2023/09/08 00:35:31;;;;;;;4.60;1.40;;;;;;;9.80;100.00;101182.19;105489;1258;73843;-51
2023/09/08 00:37:59;;;;;;;4.00;0.90;;;;;;;9.73;100.00;101181.62;105488;1253;65369;-53
2023/09/08 00:40:28;;;;;;;3.60;1.20;;;;;;;9.71;100.00;101182.03;104880;1258;72316;-54
2023/09/08 00:42:55;;;;;;;6.40;1.20;;;;;;;9.67;100.00;101180.50;104967;1254;61666;-53
2023/09/08 00:45:22;;;;;;;3.00;0.90;;;;;;;9.64;100.00;101175.73;105009;1253;60664;-54
2023/09/08 00:47:50;;;;;;;3.30;0.90;;;;;;;9.66;100.00;101177.48;104751;1253;72644;-53
2023/09/08 00:50:17;;;;;;;2.40;1.00;;;;;;;9.63;100.00;101175.92;104657;1258;67623;-52
2023/09/08 00:52:45;;;;;;;1.60;0.80;;;;;;;9.63;100.00;101175.38;105057;1258;72461;-52
2023/09/08 00:55:12;;;;;;;3.60;1.20;;;;;;;9.67;100.00;101174.43;104917;1256;60548;-53
2023/09/08 00:57:39;;;;;;;3.70;1.00;;;;;;;9.69;100.00;101165.79;104749;1252;60461;-54
2023/09/08 01:00:08;;;;;;;2.60;1.30;;;;;;;9.70;100.00;101162.70;105877;1256;73793;-53
2023/09/08 01:02:35;;;;;;;1.80;1.00;;;;;;;9.73;100.00;101165.32;105277;1258;66716;-54
2023/09/08 01:05:04;;;;;;;3.70;1.20;;;;;;;9.75;100.00;101156.66;105095;1253;72513;-53
2023/09/08 01:07:31;;;;;;;3.30;1.00;;;;;;;9.77;100.00;101157.54;104986;1252;60643;-54
2023/09/08 01:10:04;;;;;;;5.30;1.00;;;;;;;9.72;100.00;101160.14;105177;1256;60778;-53
2023/09/08 01:12:33;;;;;;;3.50;0.90;;;;;;;9.64;100.00;101164.10;105050;1258;73802;-54
2023/09/08 01:15:01;;;;;;;8.00;1.00;;;;;;;9.56;100.00;101166.94;105629;1257;65639;-54
2023/09/08 01:17:29;;;;;;;4.00;0.80;;;;;;;9.53;100.00;101164.86;104752;1259;72760;-53
2023/09/08 01:20:01;;;;;;;1.80;0.70;;;;;;;9.52;100.00;101165.45;105185;1253;62248;-48
2023/09/08 01:22:43;;;;;;;4.40;1.60;;;;;;;9.48;100.00;101164.25;104960;1258;60695;-49
2023/09/08 01:25:12;;;;;;;2.20;0.80;;;;;;;9.41;100.00;101170.14;105470;1257;73803;-50
2023/09/08 01:27:43;;;;;;;2.80;0.90;;;;;;;9.34;100.00;101169.75;105005;1253;66930;-50
2023/09/08 01:30:10;;;;;;;3.90;0.90;;;;;;;9.33;100.00;101170.14;104811;1253;71350;-47
2023/09/08 01:32:38;;;;;;;2.60;0.90;;;;;;;9.35;100.00;101170.81;104835;1255;60547;-51
2023/09/08 01:35:06;;;;;;;2.40;0.80;;;;;;;9.38;100.00;101175.75;104855;1253;60661;-49
2023/09/08 01:37:33;;;;;;;2.80;1.10;;;;;;;9.38;100.00;101179.86;104932;1253;74321;-50
2023/09/08 01:40:01;;;;;;;1.70;1.10;;;;;;;9.29;100.00;101181.13;104790;1253;69231;-48
2023/09/08 01:42:28;;;;;;;2.80;0.90;;;;;;;9.19;100.00;101186.52;104938;1251;72683;-47
2023/09/08 01:44:55;;;;;;;2.20;0.90;;;;;;;9.07;100.00;101186.42;104848;1252;64014;-51
2023/09/08 01:47:22;;;;;;;4.00;0.90;;;;;;;8.99;100.00;101186.75;104929;1251;60476;-51
2023/09/08 01:49:50;;;;;;;4.10;0.90;;;;;;;8.99;100.00;101182.63;104824;1253;73928;-54
2023/09/08 01:52:17;;;;;;;2.90;0.90;;;;;;;9.00;100.00;101184.59;104748;1256;66857;-52
2023/09/08 01:54:44;;;;;;;1.40;0.80;;;;;;;8.97;100.00;101187.32;104958;1259;72463;-53
2023/09/08 01:57:12;;;;;;;2.70;1.00;;;;;;;8.93;100.00;101184.70;105041;1253;61225;-53
2023/09/08 01:59:40;;;;;;;2.60;0.90;;;;;;;8.91;100.00;101179.39;105259;1253;61570;-53
2023/09/08 02:02:07;;;;;;;3.50;1.10;;;;;;;8.93;100.00;101176.11;105002;1253;72607;-54
2023/09/08 02:04:34;;;;;;;3.30;1.10;;;;;;;8.97;100.00;101175.52;104952;1259;66962;-49
2023/09/08 02:07:03;;;;;;;3.50;0.90;;;;;;;8.93;100.00;101170.04;105640;1257;72775;-54
2023/09/08 02:09:32;;;;;;;1.50;0.90;;;;;;;8.85;100.00;101169.84;104814;1259;61137;-53
2023/09/08 02:11:59;;;;;;;2.80;1.00;;;;;;;8.78;100.00;101166.19;105638;1259;60436;-52
2023/09/08 02:14:29;;;;;;;5.80;1.00;;;;;;;8.78;100.00;101163.69;107395;1259;75540;-53
2023/09/08 02:16:56;;;;;;;3.70;1.20;;;;;;;8.79;100.00;101159.74;104986;1258;65519;-51
2023/09/08 02:19:24;;;;;;;2.30;0.90;;;;;;;8.76;100.00;101161.23;104814;1256;70590;-53
2023/09/08 02:21:51;;;;;;;5.00;1.00;;;;;;;8.73;100.00;101159.14;105052;1252;61662;-53
2023/09/08 02:24:18;;;;;;;6.90;1.10;;;;;;;8.69;100.00;101162.61;104947;1258;60353;-52
2023/09/08 02:26:46;;;;;;;4.00;1.10;;;;;;;8.68;100.00;101158.33;104847;1253;72831;-52
2023/09/08 02:29:14;;;;;;;3.50;1.00;;;;;;;8.71;100.00;101160.05;109029;1253;67389;-53
2023/09/08 02:31:41;;;;;;;1.40;0.70;;;;;;;8.78;100.00;101159.05;108959;1252;72614;-54
2023/09/08 02:34:09;;;;;;;1.60;0.80;;;;;;;8.80;100.00;101159.55;108963;1253;59863;-54
2023/09/08 02:36:37;;;;;;;2.30;0.90;;;;;;;8.81;100.00;101158.27;108966;1254;59956;-53
2023/09/08 02:39:06;;;;;;;2.20;1.30;;;;;;;8.82;100.00;101157.91;108940;1258;74906;-53
2023/09/08 02:41:34;;;;;;;4.60;1.20;;;;;;;8.79;100.00;101155.43;109197;1253;66010;-53
2023/09/08 02:44:01;;;;;;;3.80;1.00;;;;;;;8.75;100.00;101151.25;109044;1253;70755;-51
2023/09/08 02:46:29;;;;;;;4.90;1.30;;;;;;;8.73;100.00;101147.33;109055;1253;60094;-54
2023/09/08 02:48:56;;;;;;;1.70;0.80;;;;;;;8.75;100.00;101151.95;109072;1253;58760;-54
2023/09/08 02:51:24;;;;;;;4.40;0.90;;;;;;;8.77;100.00;101152.27;109065;1253;71560;-54
2023/09/08 02:53:51;;;;;;;3.00;0.90;;;;;;;8.73;100.00;101155.56;108972;1253;65523;-54
2023/09/08 02:56:19;;;;;;;2.40;0.90;;;;;;;8.64;100.00;101153.58;108943;1254;72424;-54
2023/09/08 02:58:46;;;;;;;2.50;1.00;;;;;;;8.60;100.00;101150.77;109048;1254;59424;-54
2023/09/08 03:01:19;;;;;;;4.30;0.90;;;;;;;8.58;100.00;101154.40;109184;1252;58822;-53
2023/09/08 03:03:46;;;;;;;3.10;1.10;;;;;;;8.54;100.00;101148.73;109071;1253;74121;-53
2023/09/08 03:06:15;;;;;;;1.80;0.80;;;;;;;8.53;100.00;101143.92;108973;1253;66654;-54
2023/09/08 03:08:42;;;;;;;3.10;1.10;;;;;;;8.56;100.00;101145.32;108920;1253;72701;-53
2023/09/08 03:11:09;;;;;;;2.80;1.30;;;;;;;8.58;100.00;101144.04;104828;1253;60459;-51
2023/09/08 03:13:37;;;;;;;3.10;1.00;;;;;;;8.54;100.00;101145.16;104955;1253;60454;-50
2023/09/08 03:16:05;;;;;;;2.10;1.10;;;;;;;8.51;100.00;101148.80;105028;1258;73841;-49
2023/09/08 03:18:33;;;;;;;4.50;1.20;;;;;;;8.46;100.00;101145.13;105826;1253;66399;-48
2023/09/08 03:21:08;;;;;;;2.20;1.10;;;;;;;8.40;100.00;101145.60;105506;1253;72440;-49
2023/09/08 03:23:42;;;;;;;2.10;1.00;;;;;;;8.42;100.00;101149.52;104793;1256;61197;-49
2023/09/08 03:26:10;;;;;;;3.70;1.30;;;;;;;8.43;100.00;101147.32;105179;1258;61103;-48
2023/09/08 03:28:38;;;;;;;2.70;1.30;;;;;;;8.44;100.00;101151.06;105098;1258;72893;-48
2023/09/08 03:31:06;;;;;;;6.70;1.00;;;;;;;8.43;100.00;101150.00;105232;1253;67677;-50
2023/09/08 03:33:34;;;;;;;1.80;0.80;;;;;;;8.40;100.00;101149.91;104818;1258;72911;-49
2023/09/08 03:36:02;;;;;;;2.60;0.80;;;;;;;8.31;100.00;101146.98;105804;1254;63854;-47
2023/09/08 03:38:30;;;;;;;2.10;0.90;;;;;;;8.27;100.00;101152.20;105095;1258;60546;-48
2023/09/08 03:40:57;;;;;;;3.20;0.90;;;;;;;8.28;100.00;101152.20;104997;1259;72867;-49
2023/09/08 03:43:25;;;;;;;2.50;1.30;;;;;;;8.31;100.00;101151.45;105039;1257;68335;-48
2023/09/08 03:45:52;;;;;;;3.30;1.10;;;;;;;8.36;100.00;101146.02;104819;1253;72012;-48
2023/09/08 03:48:20;;;;;;;1.70;0.90;;;;;;;8.41;100.00;101144.52;104861;1260;62925;-47
2023/09/08 03:50:47;;;;;;;3.70;1.20;;;;;;;8.45;100.00;101144.43;104815;1261;60600;-49
2023/09/08 03:53:14;;;;;;;3.00;1.00;;;;;;;8.49;100.00;101147.23;105087;1253;71567;-49
2023/09/08 03:55:42;;;;;;;4.70;1.10;;;;;;;8.51;100.00;101147.73;104815;1254;66631;-48
2023/09/08 03:58:09;;;;;;;2.60;0.90;;;;;;;8.53;100.00;101148.95;104830;1259;71459;-49
2023/09/08 04:00:37;;;;;;;3.30;0.90;;;;;;;8.57;100.00;101148.52;104809;1258;62651;-49
2023/09/08 04:03:04;;;;;;;4.80;1.10;;;;;;;8.59;100.00;101149.71;104934;1258;61057;-49
2023/09/08 04:05:32;;;;;;;2.80;0.70;;;;;;;8.62;100.00;101149.13;104949;1258;73872;-48
2023/09/08 04:07:59;;;;;;;2.50;0.80;;;;;;;8.63;100.00;101148.59;104882;1253;67896;-49
2023/09/08 04:10:27;;;;;;;2.20;0.80;;;;;;;8.63;100.00;101141.42;104894;1258;72485;-48
2023/09/08 04:12:54;;;;;;;2.70;1.00;;;;;;;8.62;100.00;101143.05;104832;1259;60553;-50
2023/09/08 04:15:22;;;;;;;3.00;1.20;;;;;;;8.65;100.00;101145.69;104967;1258;60637;-49
2023/09/08 04:17:50;;;;;;;1.90;0.90;;;;;;;8.72;100.00;101146.81;104895;1253;73781;-50
2023/09/08 04:20:18;;;;;;;6.80;0.90;;;;;;;8.79;100.00;101145.07;105824;1259;68106;-51
2023/09/08 04:22:46;;;;;;;3.40;1.00;;;;;;;8.88;100.00;101143.47;104447;1258;73122;-48
2023/09/08 04:25:14;;;;;;;5.20;1.10;;;;;;;8.98;100.00;101143.44;104705;1259;60535;-50
2023/09/08 04:27:41;;;;;;;5.60;1.10;;;;;;;9.06;100.00;101141.85;104733;1259;60829;-50
2023/09/08 04:30:09;;;;;;;3.10;0.90;;;;;;;9.17;100.00;101141.45;104870;1255;72616;-50
2023/09/08 04:32:37;;;;;;;3.20;0.90;;;;;;;9.28;100.00;101144.43;105082;1259;65797;-50
2023/09/08 04:35:05;;;;;;;2.80;0.90;;;;;;;9.42;100.00;101149.14;105871;1256;73652;-50
2023/09/08 04:37:36;;;;;;;5.30;1.00;;;;;;;9.66;100.00;101146.11;105911;1253;60898;-50
2023/09/08 04:40:05;;;;;;;5.50;1.60;;;;;;;10.01;100.00;101142.25;104913;1258;60435;-49
2023/09/08 04:42:33;;;;;;;3.10;0.80;;;;;;;10.38;100.00;101135.97;105779;1254;74207;-47
2023/09/08 04:45:01;;;;;;;2.60;0.90;;;;;;;10.78;100.00;101139.76;105332;1254;68366;-48
2023/09/08 04:47:28;;;;;;;4.20;1.00;;;;;;;11.13;100.00;101136.98;105013;1259;73915;-48
2023/09/08 04:49:56;;;;;;;2.90;1.00;;;;;;;11.34;100.00;101134.02;104883;1261;60649;-48
2023/09/08 04:52:24;;;;;;;3.70;1.10;;;;;;;11.47;100.00;101132.75;105050;1259;60436;-50
2023/09/08 04:54:52;;;;;;;3.90;1.20;;;;;;;11.55;100.00;101132.86;104822;1259;73824;-49
2023/09/08 04:57:19;;;;;;;3.60;1.10;;;;;;;11.62;100.00;101128.52;104886;1260;66505;-51
2023/09/08 04:59:52;;;;;;;4.60;1.10;;;;;;;11.66;100.00;101122.96;105434;1258;72618;-50
2023/09/08 05:02:20;;;;;;;5.40;1.40;;;;;;;11.70;100.00;101124.48;104929;1259;60457;-50
2023/09/08 05:04:48;;;;;;;5.70;1.50;;;;;;;11.74;100.00;101124.02;105077;1257;60540;-48
2023/09/08 05:07:17;;;;;;;4.90;1.50;;;;;;;11.79;100.00;101122.65;105366;1259;72574;-50
2023/09/08 05:09:44;;;;;;;3.50;1.20;;;;;;;11.85;100.00;101121.52;104948;1258;67897;-49
2023/09/08 05:12:12;;;;;;;8.30;1.40;;;;;;;11.92;100.00;101118.80;105331;1260;73168;-50
2023/09/08 05:14:41;;;;;;;4.40;1.30;;;;;;;11.99;100.00;101117.29;104976;1258;62178;-49
2023/09/08 05:17:09;;;;;;;5.30;1.30;;;;;;;12.11;100.00;101113.31;104802;1254;60499;-49
2023/09/08 05:19:36;;;;;;;2.80;1.00;;;;;;;12.25;100.00;101113.20;104772;1260;74507;-50
2023/09/08 05:22:05;;;;;;;10.00;1.20;;;;;;;12.40;100.00;101112.86;104811;1259;67164;-49
2023/09/08 05:24:32;;;;;;;4.60;1.20;;;;;;;12.55;100.00;101115.06;104993;1260;71347;-50
2023/09/08 05:27:00;;;;;;;10.90;1.70;;;;;;;12.68;100.00;101114.94;104924;1255;60508;-51
2023/09/08 05:29:27;;;;;;;3.80;1.50;;;;;;;12.82;100.00;101111.91;104656;1254;60460;-50
2023/09/08 05:31:55;;;;;;;5.00;1.20;;;;;;;12.95;100.00;101115.41;104954;1257;71985;-49
2023/09/08 05:34:23;;;;;;;6.10;1.00;;;;;;;13.08;100.00;101114.95;104875;1259;65476;-49
2023/09/08 05:36:51;;;;;;;5.30;1.30;;;;;;;13.20;100.00;101112.17;104773;1257;72647;-49
2023/09/08 05:39:19;;;;;;;4.70;1.90;;;;;;;13.31;100.00;101107.24;108997;1253;60109;-51
2023/09/08 05:41:46;;;;;;;6.50;1.70;;;;;;;13.41;100.00;101105.41;108967;1258;58745;-51
2023/09/08 05:44:14;;;;;;;3.40;1.50;;;;;;;13.51;100.00;101096.90;108995;1254;74360;-52
2023/09/08 05:46:41;;;;;;;4.70;1.30;;;;;;;13.61;100.00;101094.90;108986;1259;67250;-51
2023/09/08 05:49:09;;;;;;;8.20;1.40;;;;;;;13.72;100.00;101094.98;109205;1257;72393;-51
2023/09/08 05:51:37;;;;;;;7.30;1.90;;;;;;;13.84;100.00;101093.98;108882;1259;58887;-53
2023/09/08 05:54:05;;;;;;;4.80;1.70;;;;;;;13.95;100.00;101093.71;108960;1253;58727;-52
2023/09/08 05:56:33;;;;;;;7.20;1.20;;;;;;;14.06;100.00;101091.80;109097;1253;72540;-51
2023/09/08 05:59:01;;;;;;;3.60;1.20;;;;;;;14.19;100.00;101091.43;108928;1254;65717;-51
2023/09/08 06:01:30;;;;;;;2.00;1.00;;;;;;;14.32;100.00;101088.36;109041;1257;73124;-52
2023/09/08 06:03:57;;;;;;;6.00;1.10;;;;;;;14.45;100.00;101084.20;108898;1253;59015;-52
2023/09/08 06:06:28;;;;;;;8.10;1.60;;;;;;;14.59;100.00;101084.16;105123;1259;60518;-48
2023/09/08 06:08:56;;;;;;;2.60;1.10;;;;;;;14.73;100.00;101080.27;105028;1260;73952;-49
2023/09/08 06:11:24;;;;;;;11.30;1.50;;;;;;;14.86;100.00;101080.39;104952;1257;66733;-51
2023/09/08 06:13:52;;;;;;;6.30;1.20;;;;;;;14.98;100.00;101076.23;104788;1256;71167;-50
2023/09/08 06:16:20;;;;;;;2.10;1.00;;;;;;;15.10;100.00;101075.68;104958;1264;60436;-50
2023/09/08 06:18:48;;;;;;;5.00;1.00;;;;;;;15.20;100.00;101071.23;104813;1254;60546;-51
2023/09/08 06:21:17;;;;;;;8.40;1.00;;;;;;;15.30;100.00;101068.23;105084;1254;73905;-52
2023/09/08 06:23:44;;;;;;;7.20;1.30;;;;;;;15.40;100.00;101073.20;104839;1260;67610;-49
2023/09/08 06:26:12;;;;;;;4.30;1.00;;;;;;;15.49;100.00;101071.32;105681;1259;72445;-51
2023/09/08 06:28:43;;;;;;;4.70;1.00;;;;;;;15.58;100.00;101071.49;104813;1255;60636;-50
2023/09/08 06:31:11;;;;;;;3.10;1.00;;;;;;;15.66;100.00;101070.52;105280;1257;60463;-51
2023/09/08 06:33:39;;;;;;;2.30;0.80;;;;;;;15.75;100.00;101072.98;107459;1254;73936;-51
2023/09/08 06:36:07;;;;;;;1.50;0.60;;;;;;;15.83;100.00;101064.42;104951;1254;65650;-50
2023/09/08 06:38:34;;;;;;;2.10;0.80;;;;;;;15.90;100.00;101061.73;106168;1259;73162;-52
2023/09/08 06:41:09;;;;;;;5.50;0.70;;;;;;;15.98;100.00;101062.30;104904;1258;60533;-50
2023/09/08 06:43:37;;;;;;;2.10;1.30;;;;;;;16.03;100.00;101061.81;105076;1259;60474;-50
2023/09/08 06:46:09;;;;;;;2.80;0.70;;;;;;;16.10;100.00;101058.90;104831;1258;72562;-50
2023/09/08 06:48:37;;;;;;;2.40;1.30;;;;;;;16.18;100.00;101061.78;105058;1253;65499;-49
2023/09/08 06:51:05;;;;;;;2.80;0.50;;;;;;;16.25;100.00;101063.43;104947;1258;71304;-51
2023/09/08 06:53:33;;;;;;;4.80;0.80;;;;;;;16.31;100.00;101063.30;105197;1255;60491;-53
2023/09/08 06:56:00;;;;;;;3.10;0.70;;;;;;;16.38;100.00;101061.11;104909;1258;60420;-51
2023/09/08 06:58:28;;;;;;;1.30;0.70;;;;;;;16.44;100.00;101057.73;104927;1258;73088;-51
2023/09/08 07:00:57;;;;;;;0.90;0.70;;;;;;;16.51;100.00;101058.98;105484;1257;66766;-52
2023/09/08 07:03:26;;;;;;;1.60;0.80;;;;;;;16.59;100.00;101055.67;104903;1262;71456;-52
2023/09/08 07:05:55;;;;;;;1.50;0.60;;;;;;;16.67;100.00;101056.35;105418;1254;60542;-52
2023/09/08 07:08:22;;;;;;;3.30;0.70;;;;;;;16.76;100.00;101054.26;105296;1258;60372;-53
2023/09/08 07:10:54;;;;;;;1.00;0.60;;;;;;;16.84;100.00;101053.44;104934;1254;74520;-53
2023/09/08 07:13:21;;;;;;;1.80;0.70;;;;;;;16.91;100.00;101052.35;105460;1254;65991;-49
2023/09/08 07:15:49;;;;;;;1.30;0.60;;;;;;;16.97;100.00;101051.09;104898;1255;73176;-51
2023/09/08 07:18:16;;;;;;;2.40;0.50;;;;;;;17.05;100.00;101053.04;105031;1254;60563;-51
2023/09/08 07:20:50;;;;;;;3.10;0.50;;;;;;;17.13;100.00;101050.77;104890;1254;60678;-50
2023/09/08 07:23:18;;;;;;;1.80;0.50;;;;;;;17.22;100.00;101051.02;106525;1259;74012;-53
2023/09/08 07:25:47;;;;;;;3.30;0.60;;;;;;;17.31;100.00;101049.60;105266;1254;65536;-51
2023/09/08 07:28:15;;;;;;;1.70;0.60;;;;;;;17.39;100.00;101043.34;105077;1259;71274;-51
2023/09/08 07:30:43;;;;;;;4.10;0.50;;;;;;;17.46;100.00;101045.30;104929;1260;60538;-50
2023/09/08 07:33:10;;;;;;;1.60;0.60;;;;;;;17.53;100.00;101042.73;104903;1259;60566;-50
2023/09/08 07:35:39;;;;;;;2.20;0.50;;;;;;;17.61;100.00;101041.74;105226;1260;73930;-51
2023/09/08 07:38:06;;;;;;;2.40;0.60;;;;;;;17.68;100.00;101033.94;104753;1254;67463;-51
2023/09/08 07:40:34;;;;;;;3.70;0.50;;;;;;;17.73;100.00;101035.06;104799;1264;73049;-53
2023/09/08 07:43:02;;;;;;;1.90;0.40;;;;;;;17.80;100.00;101029.94;105355;1254;60700;-53
2023/09/08 07:45:29;;;;;;;0.50;0.40;;;;;;;17.87;100.00;101034.44;104705;1254;333512;-51
2023/09/08 07:49:36;;;;;;;1.30;0.30;;;;;;;17.97;100.00;101051.45;101962;1291;601223;-50
2023/09/08 07:52:04;;;;;;;0.60;0.40;;;;;;;18.02;100.00;101044.27;103972;1269;60098;-51
2023/09/08 07:54:32;;;;;;;2.50;0.30;;;;;;;18.05;100.00;101038.63;104184;1265;59253;-49
2023/09/08 07:56:59;;;;;;;3.10;0.30;;;;;;;18.08;100.00;101032.45;103998;1270;72237;-52
2023/09/08 07:59:26;;;;;;;4.00;0.40;;;;;;;18.12;100.00;101028.25;104331;1268;65519;-50
2023/09/08 08:01:54;;;;;;;2.00;0.40;;;;;;;18.18;100.00;101021.73;104373;1265;71660;-52
2023/09/08 08:04:21;;;;;;;0.80;0.20;;;;;;;18.24;100.00;101018.98;104248;1262;164947;-52
2023/09/08 08:06:49;;;;;;;0.50;0.30;;;;;;;18.28;100.00;101015.46;104429;1264;60046;-52
2023/09/08 08:09:19;;;;;;;1.20;0.40;;;;;;;18.32;100.00;101013.40;104906;1265;71417;-51
2023/09/08 08:11:46;;;;;;;2.90;0.30;;;;;;;18.38;100.00;101009.98;104240;1263;67317;-51
2023/09/08 08:14:13;;;;;;;0.50;0.30;;;;;;;18.43;100.00;101004.38;104365;1267;74603;-51
2023/09/08 08:16:41;;;;;;;2.10;0.30;;;;;;;18.49;100.00;101006.34;104364;1262;60125;-51
2023/09/08 08:19:08;;;;;;;1.40;0.30;;;;;;;18.57;100.00;101005.35;104144;1262;60011;-50
2023/09/08 08:21:37;;;;;;;1.20;0.20;;;;;;;18.64;100.00;101004.41;104716;1255;73551;-48
2023/09/08 08:24:05;;;;;;;0.40;0.30;;;;;;;18.67;100.00;100995.67;108634;1256;65787;-52
2023/09/08 08:26:32;;;;;;;2.10;0.30;;;;;;;18.70;100.00;100996.56;108674;1257;72881;-51
2023/09/08 08:29:00;;;;;;;1.00;0.40;;;;;;;18.73;100.00;100996.33;104714;1261;60060;-52
2023/09/08 08:31:27;;;;;;;0.80;0.20;;;;;;;18.77;100.00;100987.92;104747;1259;60147;-52
2023/09/08 08:33:55;;;;;;;3.20;0.40;;;;;;;18.81;100.00;100985.50;104707;1260;71790;-51
2023/09/08 08:36:22;;;;;;;0.60;0.40;;;;;;;18.83;100.00;100980.97;108806;1257;67006;-54
2023/09/08 08:38:50;;;;;;;1.10;0.40;;;;;;;18.86;100.00;100982.08;108813;1257;73186;-53
2023/09/08 08:41:17;;;;;;;1.90;0.40;;;;;;;18.91;100.00;100980.48;108748;1257;58865;-53
2023/09/08 08:43:45;;;;;;;1.40;0.40;;;;;;;18.96;100.00;100979.27;108665;1261;58748;-54
2023/09/08 08:46:12;;;;;;;0.30;0.30;;;;;;;19.01;100.00;100975.49;108690;1258;71922;-53
2023/09/08 08:48:40;;;;;;;0.90;0.40;;;;;;;19.05;100.00;100972.85;108738;1257;68653;-53
2023/09/08 08:51:08;;;;;;;0.70;0.40;;;;;;;19.10;100.00;100971.99;108652;1259;72684;-53
2023/09/08 08:53:35;;;;;;;0.70;0.40;;;;;;;19.14;100.00;100974.24;108705;1258;58848;-53
2023/09/08 08:56:03;;;;;;;1.50;0.40;;;;;;;19.18;100.00;100967.81;108700;1258;59978;-53
2023/09/08 08:58:30;;;;;;;1.10;0.30;;;;;;;19.22;100.00;100968.82;108657;1257;71797;-54
2023/09/08 09:00:58;;;;;;;0.60;0.40;;;;;;;19.28;100.00;100966.28;107811;1259;66316;-52
2023/09/08 09:03:28;;;;;;;0.80;0.40;;;;;;;19.34;100.00;100968.45;104769;1257;72699;-52
2023/09/08 09:05:56;;;;;;;3.10;0.40;;;;;;;19.39;100.00;100964.79;105780;1259;60137;-52
2023/09/08 09:08:24;;;;;;;0.70;0.50;;;;;;;19.45;100.00;100960.62;104662;1262;60308;-53
2023/09/08 09:10:52;;;;;;;0.60;0.40;;;;;;;19.50;100.00;100958.83;104443;1259;73962;-53
2023/09/08 09:13:19;;;;;;;1.20;0.40;;;;;;;19.55;100.00;100958.29;107606;1259;67605;-53
2023/09/08 09:15:49;;;;;;;0.60;0.30;;;;;;;19.61;100.00;100962.45;104571;1259;72714;-51
2023/09/08 09:18:16;;;;;;;2.50;0.30;;;;;;;19.63;100.00;100959.98;106942;1258;59933;-51
2023/09/08 09:20:53;;;;;;;1.10;0.40;;;;;;;19.62;100.00;100953.88;106081;1259;59523;-51
2023/09/08 09:23:33;;;;;;;1.90;0.30;;;;;;;19.64;100.00;100953.20;104322;1262;71595;-52
2023/09/08 09:26:03;;;;;;;0.70;0.40;;;;;;;19.69;100.00;100955.55;104471;1260;65885;-49
2023/09/08 09:28:31;;;;;;;1.30;0.40;;;;;;;19.72;100.00;100950.64;104446;1262;72583;-54
2023/09/08 09:30:59;;;;;;;1.10;0.40;;;;;;;19.75;100.00;100950.23;105978;1258;60007;-52
2023/09/08 09:33:27;;;;;;;1.30;0.30;;;;;;;19.79;100.00;100944.85;105998;1259;59493;-51
2023/09/08 09:35:54;;;;;;;0.70;0.30;;;;;;;19.84;100.00;100939.44;104331;1259;71860;-52
2023/09/08 09:38:22;;;;;;;1.70;0.40;;;;;;;19.89;100.00;100939.04;104671;1259;65783;-52
2023/09/08 09:40:49;;;;;;;1.60;0.40;;;;;;;19.95;100.00;100939.89;104464;1260;72680;-53
2023/09/08 09:43:17;;;;;;;1.40;0.30;;;;;;;20.01;100.00;100934.78;105592;1261;59533;-52
2023/09/08 09:45:44;;;;;;;0.60;0.30;;;;;;;20.06;100.00;100927.92;104533;1259;60491;-52
2023/09/08 09:48:12;;;;;;;4.00;0.40;;;;;;;20.10;100.00;100924.50;104341;1263;75325;-51
2023/09/08 09:50:41;;;;;;;1.70;0.30;;;;;;;20.13;100.00;100921.95;105046;1259;65839;-52
2023/09/08 09:53:13;;;;;;;3.10;0.30;;;;;;;20.17;100.00;100918.20;105112;1261;70486;-53
2023/09/08 09:55:41;;;;;;;0.80;0.30;;;;;;;20.23;100.00;100908.67;104665;1259;59836;-53
2023/09/08 09:58:10;;;;;;;1.80;0.30;;;;;;;20.28;100.00;100910.11;104520;1261;59595;-51
2023/09/08 10:00:40;;;;;;;0.40;0.30;;;;;;;20.34;100.00;100895.81;104489;1259;72182;-53
2023/09/08 10:03:08;;;;;;;0.80;0.30;;;;;;;20.39;100.00;100899.00;104813;1263;66760;-52
2023/09/08 10:05:36;;;;;;;2.40;0.40;;;;;;;20.42;100.00;100904.79;104768;1259;72762;-52
2023/09/08 10:08:04;;;;;;;3.50;0.40;;;;;;;20.44;100.00;100903.77;105124;1263;60122;-53
2023/09/08 10:10:34;;;;;;;0.80;0.50;;;;;;;20.45;100.00;100905.10;104825;1256;60144;-51
2023/09/08 10:13:03;;;;;;;0.50;0.40;;;;;;;20.49;100.00;100903.23;104932;1257;73053;-51
2023/09/08 10:15:31;;;;;;;1.40;0.50;;;;;;;20.49;100.00;100902.64;104588;1261;65798;-51
2023/09/08 10:17:59;;;;;;;1.00;0.50;;;;;;;20.50;100.00;100896.98;104980;1260;71827;-51
2023/09/08 10:20:28;;;;;;;0.80;0.40;;;;;;;20.49;100.00;100893.21;105127;1256;60043;-49
2023/09/08 10:23:20;;;;;;;0.80;0.40;;;;;;;20.50;100.00;100883.95;104749;1256;59669;-52
2023/09/08 10:25:53;;;;;;;1.10;0.70;;;;;;;20.55;100.00;100880.14;104582;1255;73110;-52
2023/09/08 10:28:25;;;;;;;2.90;0.40;;;;;;;20.59;100.00;100875.98;107638;1257;67154;-52
2023/09/08 10:30:52;;;;;;;0.90;0.40;;;;;;;20.64;100.00;100870.94;104624;1256;71379;-53
2023/09/08 10:33:20;;;;;;;0.50;0.40;;;;;;;20.68;100.00;100870.83;104714;1255;59702;-52
2023/09/08 10:35:47;;;;;;;2.00;0.40;;;;;;;20.73;100.00;100861.51;105010;1260;59649;-54
2023/09/08 10:38:21;;;;;;;0.90;0.50;;;;;;;20.77;100.00;100863.02;104876;1257;72296;-50
2023/09/08 10:40:48;;;;;;;2.20;0.40;;;;;;;20.81;100.00;100859.30;104739;1256;67360;-52
2023/09/08 10:43:15;;;;;;;2.70;0.30;;;;;;;20.84;100.00;100857.05;104426;1261;72758;-50
2023/09/08 10:45:43;;;;;;;0.50;0.30;;;;;;;20.87;100.00;100855.52;104689;1256;62147;-52
2023/09/08 10:48:10;;;;;;;0.50;0.30;;;;;;;20.93;100.00;100856.95;104676;1257;59532;-50
2023/09/08 10:50:40;;;;;;;0.20;0.20;;;;;;;20.95;100.00;100852.95;104682;1256;73071;-52
2023/09/08 10:53:17;;;;;;;0.60;0.30;;;;;;;20.96;100.00;100853.21;106893;1256;68092;-51
2023/09/08 10:55:51;;;;;;;0.90;0.20;;;;;;;20.98;100.00;100841.61;104683;1256;73629;-51
2023/09/08 10:58:40;;;;;;;0.50;0.30;;;;;;;21.01;100.00;100844.58;104711;1256;59239;-52
2023/09/08 11:01:22;;;;;;;2.40;0.30;;;;;;;21.04;100.00;100844.02;104906;1256;59744;-53
2023/09/08 11:03:51;;;;;;;0.40;0.30;;;;;;;21.05;100.00;100848.53;104757;1256;71865;-50
2023/09/08 11:06:22;;;;;;;0.40;0.30;;;;;;;21.03;100.00;100841.56;104657;1256;65621;-52
2023/09/08 11:08:52;;;;;;;0.60;0.30;;;;;;;21.04;100.00;100831.99;105174;1256;72694;-51
2023/09/08 11:11:20;;;;;;;1.30;0.30;;;;;;;21.07;100.00;100823.20;105976;1258;59648;-51
2023/09/08 11:13:48;;;;;;;0.40;0.30;;;;;;;21.12;100.00;100820.64;104564;1256;60473;-52
2023/09/08 11:16:15;;;;;;;0.40;0.30;;;;;;;21.17;100.00;100819.56;105105;1259;70877;-52
2023/09/08 11:18:43;;;;;;;0.90;0.30;;;;;;;21.22;100.00;100819.96;104552;1261;66768;-50